Time;durP1;ratioP1;P1;durP2;ratioP2;P2;SDS_P1;SDS_P2;PMS_P1;PMS_P2;Temp;Humidity;BMP_temperature;BMP_pressure;BME280_temperature;BME280_humidity;BME280_pressure;Samples;Min_cycle;Max_cycle;Signal;HPM_P1;HPM_P2
2021/01/07 00:02:21;;;;;;;10.10;6.20;;;;;;;-0.06;92.20;92495.38;1774966;77;22233;-79
2021/01/07 00:04:49;;;;;;;5.37;3.83;;;;;;;-0.17;91.76;92484.46;1787322;79;21216;-79
2021/01/07 00:07:16;;;;;;;2.83;2.58;;;;;;;-0.22;92.07;92476.73;1837568;77;21147;-81
2021/01/07 00:09:46;;;;;;;4.95;2.52;;;;;;;-0.25;92.12;92470.75;1801041;78;21168;-82
2021/01/07 00:12:15;;;;;;;5.25;3.92;;;;;;;-0.25;92.20;92472.08;1818572;78;21159;-79
2021/01/07 00:14:47;;;;;;;4.92;3.37;;;;;;;-0.31;92.26;92468.89;1841360;77;21440;-77
2021/01/07 00:17:14;;;;;;;2.90;2.60;;;;;;;-0.37;92.49;92473.55;1807624;79;21183;-77
2021/01/07 00:19:42;;;;;;;2.33;2.12;;;;;;;-0.38;92.55;92471.98;1837265;77;21178;-79
2021/01/07 00:22:10;;;;;;;3.10;2.58;;;;;;;-0.37;92.74;92471.65;1806700;79;21166;-79
2021/01/07 00:24:38;;;;;;;2.20;1.98;;;;;;;-0.36;92.64;92459.83;1820467;78;21693;-82
2021/01/07 00:29:34;;;;;;;1.82;1.60;;;;;;;-0.37;93.07;92452.18;1769818;81;21210;-79
2021/01/07 00:32:03;;;;;;;1.70;1.60;;;;;;;-0.32;93.52;92456.67;1770715;80;21225;-82
2021/01/07 00:34:33;;;;;;;27.02;14.20;;;;;;;-0.25;93.63;92454.72;1768363;80;21646;-81
2021/01/07 00:36:59;;;;;;;5.12;3.90;;;;;;;-0.19;93.04;92457.87;1772020;79;21213;-78
2021/01/07 00:39:27;;;;;;;6.30;4.08;;;;;;;-0.20;92.24;92459.00;1770434;80;21205;-80
2021/01/07 00:41:56;;;;;;;10.80;6.87;;;;;;;-0.31;91.31;92463.55;1785329;78;21200;-79
2021/01/07 00:44:24;;;;;;;10.48;6.95;;;;;;;-0.45;91.02;92467.28;1784972;78;21252;-82
2021/01/07 00:46:52;;;;;;;14.03;8.33;;;;;;;-0.54;91.40;92468.02;1775818;79;21290;-83
2021/01/07 00:49:19;;;;;;;6.87;4.58;;;;;;;-0.56;91.50;92472.95;1771988;79;21213;-79
2021/01/07 00:51:49;;;;;;;6.42;4.05;;;;;;;-0.60;91.33;92473.41;1775268;79;21502;-78
2021/01/07 00:54:18;;;;;;;4.47;3.37;;;;;;;-0.68;91.49;92473.81;1782617;79;21666;-80
2021/01/07 00:56:49;;;;;;;2.45;2.25;;;;;;;-0.72;91.64;92479.63;1765530;80;21166;-79
2021/01/07 00:59:18;;;;;;;1.52;1.42;;;;;;;-0.82;91.70;92476.95;1770823;79;21636;-80
2021/01/07 01:01:49;;;;;;;1.70;1.40;;;;;;;-0.85;91.85;92472.30;1772583;79;21157;-79
2021/01/07 01:04:17;;;;;;;1.40;1.20;;;;;;;-0.85;92.00;92474.97;1770633;80;21528;-78
2021/01/07 01:06:44;;;;;;;1.75;1.45;;;;;;;-0.84;91.84;92475.73;1781954;79;21596;-82
2021/01/07 01:09:12;;;;;;;1.30;1.20;;;;;;;-0.90;91.73;92479.24;1770807;80;21193;-82
2021/01/07 01:11:47;;;;;;;0.93;0.93;;;;;;;-0.95;91.87;92476.81;1773611;79;21212;-79
2021/01/07 01:14:17;;;;;;;1.10;1.05;;;;;;;-0.99;92.16;92470.63;1780193;78;21220;-80
2021/01/07 01:16:49;;;;;;;0.72;0.72;;;;;;;-0.99;92.37;92471.95;1763640;79;22237;-80
2021/01/07 01:19:18;;;;;;;6.05;4.08;;;;;;;-1.01;92.55;92472.31;1767000;79;21177;-79
2021/01/07 01:21:52;;;;;;;49.03;33.88;;;;;;;-0.96;92.76;92473.17;1756476;80;21292;-79
2021/01/07 01:24:20;;;;;;;35.38;22.32;;;;;;;-0.97;92.13;92469.73;1774797;79;21221;-77
2021/01/07 01:26:59;;;;;;;35.08;23.45;;;;;;;-0.95;92.08;92468.05;1810027;77;21203;-83
2021/01/07 01:29:27;;;;;;;8.70;6.35;;;;;;;-0.94;91.88;92469.05;1818146;78;21180;-81
2021/01/07 01:31:56;;;;;;;3.83;3.10;;;;;;;-0.96;91.74;92464.61;1835820;77;21195;-84
2021/01/07 01:34:24;;;;;;;2.87;2.35;;;;;;;-1.01;91.95;92472.88;1790646;79;21131;-79
2021/01/07 01:36:53;;;;;;;2.00;1.55;;;;;;;-1.02;92.04;92459.30;1798515;79;21246;-80
2021/01/07 01:39:21;;;;;;;1.17;1.07;;;;;;;-1.00;92.22;92454.41;1750161;82;21194;-83
2021/01/07 01:41:49;;;;;;;0.78;0.78;;;;;;;-1.04;92.55;92439.65;1829022;77;21363;-78
2021/01/07 01:44:17;;;;;;;5.67;2.23;;;;;;;-1.01;92.99;92438.19;1816685;77;21163;-79
2021/01/07 01:46:45;;;;;;;3.45;1.52;;;;;;;-0.93;92.91;92435.89;1798156;77;21541;-81
2021/01/07 01:49:14;;;;;;;2.10;1.50;;;;;;;-0.92;92.52;92436.09;1811998;78;21696;-79
2021/01/07 01:51:43;;;;;;;1.57;1.30;;;;;;;-0.97;92.44;92437.71;1749349;80;21182;-80
2021/01/07 01:54:11;;;;;;;2.00;1.02;;;;;;;-1.01;92.51;92432.29;1765371;80;21641;-84
2021/01/07 01:56:39;;;;;;;0.80;0.80;;;;;;;-1.06;92.49;92421.86;1752062;80;21202;-79
2021/01/07 01:59:07;;;;;;;1.35;0.98;;;;;;;-1.08;92.75;92414.01;1768701;79;21602;-80
2021/01/07 02:01:34;;;;;;;0.60;0.60;;;;;;;-1.09;93.15;92411.91;1745004;81;22205;-79
2021/01/07 02:04:02;;;;;;;4.08;3.67;;;;;;;-1.05;93.21;92400.75;1785722;80;21379;-79
2021/01/07 02:06:30;;;;;;;0.70;0.70;;;;;;;-1.05;93.18;92391.41;1803826;79;21485;-78
2021/01/07 02:08:57;;;;;;;7.60;3.15;;;;;;;-1.01;93.30;92387.49;1750788;79;21040;-78
2021/01/07 02:11:24;;;;;;;1.77;1.22;;;;;;;-0.94;93.10;92383.65;1810116;79;21224;-79
2021/01/07 02:13:52;;;;;;;2.77;2.08;;;;;;;-0.91;92.76;92383.49;1822947;78;21812;-78
2021/01/07 02:16:24;;;;;;;2.00;1.80;;;;;;;-0.89;92.78;92386.60;1797479;76;21162;-78
2021/01/07 02:18:55;;;;;;;4.50;2.17;;;;;;;-0.84;92.72;92383.65;1849832;77;21374;-76
2021/01/07 02:21:24;;;;;;;4.25;2.33;;;;;;;-0.86;92.64;92381.34;1741148;81;21230;-80
2021/01/07 02:23:53;;;;;;;2.98;2.17;;;;;;;-0.84;92.79;92385.75;1719665;82;21528;-81
2021/01/07 02:26:22;;;;;;;1.80;1.15;;;;;;;-0.78;92.66;92387.04;1747536;80;21212;-77
2021/01/07 02:28:50;;;;;;;0.98;0.98;;;;;;;-0.79;92.30;92387.37;1712492;81;21204;-77
2021/01/07 02:31:18;;;;;;;6.03;2.52;;;;;;;-0.81;92.36;92374.38;1743182;78;22179;-81
2021/01/07 02:33:46;;;;;;;10.00;4.58;;;;;;;-0.79;92.42;92384.16;1801144;79;21164;-79
2021/01/07 02:36:14;;;;;;;5.65;2.80;;;;;;;-0.81;92.20;92377.05;1810104;79;21156;-81
2021/01/07 02:38:42;;;;;;;1.20;1.10;;;;;;;-0.77;92.13;92375.80;1764930;79;21222;-78
2021/01/07 02:41:10;;;;;;;1.02;0.80;;;;;;;-0.82;91.85;92370.18;1807061;77;21163;-81
2021/01/07 02:43:38;;;;;;;2.33;1.75;;;;;;;-0.87;91.98;92372.33;1821368;78;21709;-79
2021/01/07 02:46:06;;;;;;;2.00;1.87;;;;;;;-0.87;92.12;92380.34;1813150;78;21198;-78
2021/01/07 02:48:34;;;;;;;3.47;1.85;;;;;;;-0.90;92.06;92369.81;1735612;82;21667;-80
2021/01/07 02:51:02;;;;;;;2.30;1.70;;;;;;;-0.94;92.04;92362.30;1814208;77;21252;-81
2021/01/07 02:53:29;;;;;;;7.62;3.90;;;;;;;-0.94;92.31;92360.16;1817409;78;21673;-80
2021/01/07 02:55:57;;;;;;;8.55;3.83;;;;;;;-0.90;92.27;92357.01;1815766;78;21886;-76
2021/01/07 02:58:27;;;;;;;17.37;7.62;;;;;;;-0.89;92.16;92361.25;1798693;78;21272;-80
2021/01/07 03:00:54;;;;;;;8.45;4.62;;;;;;;-0.86;92.10;92356.55;1827752;78;21171;-79
2021/01/07 03:03:22;;;;;;;4.25;2.62;;;;;;;-0.84;92.07;92344.95;1795230;77;21420;-77
2021/01/07 03:05:49;;;;;;;12.60;4.60;;;;;;;-0.80;92.22;92346.56;1781568;79;21223;-80
2021/01/07 03:08:17;;;;;;;20.25;12.00;;;;;;;-0.74;92.03;92349.17;1810139;78;21682;-78
2021/01/07 03:10:44;;;;;;;22.17;13.40;;;;;;;-0.73;91.82;92364.63;1759800;80;21146;-78
2021/01/07 03:13:12;;;;;;;17.42;11.30;;;;;;;-0.73;91.76;92371.30;1789305;78;21742;-80
2021/01/07 03:15:40;;;;;;;17.20;9.40;;;;;;;-0.71;91.83;92368.27;1779339;80;21195;-77
2021/01/07 03:18:07;;;;;;;8.05;5.08;;;;;;;-0.69;91.90;92361.47;1814255;78;21680;-80
2021/01/07 03:20:35;;;;;;;3.77;2.57;;;;;;;-0.71;91.64;92350.92;1788224;77;21452;-80
2021/01/07 03:23:02;;;;;;;6.77;5.80;;;;;;;-0.78;91.60;92352.34;1735273;82;21246;-80
2021/01/07 03:25:30;;;;;;;1.20;0.80;;;;;;;-0.81;91.85;92351.70;1744548;81;21165;-77
2021/01/07 03:27:57;;;;;;;1.37;1.10;;;;;;;-0.79;92.04;92356.14;1801822;79;21534;-77
2021/01/07 03:30:24;;;;;;;1.15;0.78;;;;;;;-0.77;91.92;92341.86;1760544;79;21497;-79
2021/01/07 03:32:52;;;;;;;0.90;0.80;;;;;;;-0.79;91.72;92333.45;1705395;83;21866;-79
2021/01/07 03:35:19;;;;;;;12.18;6.60;;;;;;;-0.87;91.78;92326.39;1759559;79;21532;-81
2021/01/07 03:37:47;;;;;;;8.28;5.03;;;;;;;-0.88;92.12;92333.42;1805175;77;21491;-78
2021/01/07 03:40:14;;;;;;;12.40;5.72;;;;;;;-0.88;92.07;92331.53;1769407;80;21173;-79
2021/01/07 03:42:42;;;;;;;6.55;3.67;;;;;;;-0.89;91.98;92330.55;1768951;79;21231;-81
2021/01/07 03:45:11;;;;;;;3.67;2.37;;;;;;;-0.92;92.04;92325.91;1797501;78;22507;-80
2021/01/07 03:47:39;;;;;;;6.25;1.80;;;;;;;-0.93;92.22;92329.14;1799212;78;21166;-81
2021/01/07 03:50:08;;;;;;;2.37;1.50;;;;;;;-0.88;92.44;92328.86;1800195;79;21167;-80
2021/01/07 03:52:36;;;;;;;1.30;1.20;;;;;;;-0.83;92.35;92323.80;1827469;77;21163;-82
2021/01/07 03:55:05;;;;;;;1.70;0.90;;;;;;;-0.78;92.33;92318.97;1811374;79;21203;-81
2021/01/07 03:57:33;;;;;;;2.02;0.90;;;;;;;-0.71;92.29;92323.69;1868153;76;22217;-80
2021/01/07 04:00:00;;;;;;;0.78;0.78;;;;;;;-0.66;92.07;92315.95;1826602;76;21200;-81
2021/01/07 04:02:30;;;;;;;0.85;0.50;;;;;;;-0.64;91.97;92318.49;1826898;77;21175;-78
2021/01/07 04:04:58;;;;;;;2.42;1.98;;;;;;;-0.62;92.00;92320.80;1797676;79;21159;-78
2021/01/07 04:07:26;;;;;;;7.73;6.67;;;;;;;-0.57;92.07;92327.19;1776688;80;21153;-80
2021/01/07 04:09:53;;;;;;;11.25;7.15;;;;;;;-0.54;91.74;92325.16;1767854;81;22429;-83
2021/01/07 04:12:21;;;;;;;21.33;14.15;;;;;;;-0.53;91.64;92328.02;1803734;79;21321;-79
2021/01/07 04:14:50;;;;;;;24.13;14.23;;;;;;;-0.47;91.61;92328.53;1835539;77;21176;-79
2021/01/07 04:17:18;;;;;;;26.15;14.15;;;;;;;-0.42;91.75;92329.57;1808288;78;21184;-80
2021/01/07 04:19:46;;;;;;;19.27;12.78;;;;;;;-0.39;91.62;92320.29;1836532;77;21119;-80
2021/01/07 04:22:14;;;;;;;14.60;10.03;;;;;;;-0.32;91.69;92321.77;1786508;80;21602;-77
2021/01/07 04:24:42;;;;;;;9.30;5.70;;;;;;;-0.27;91.59;92311.34;1812072;79;21696;-78
2021/01/07 04:27:10;;;;;;;17.87;10.78;;;;;;;-0.25;91.42;92317.89;1835316;77;21170;-80
2021/01/07 04:29:40;;;;;;;13.90;8.15;;;;;;;-0.25;91.26;92315.22;1780231;78;21197;-77
2021/01/07 04:32:08;;;;;;;6.62;4.40;;;;;;;-0.28;91.08;92317.83;1762640;81;21651;-78
2021/01/07 04:34:36;;;;;;;3.37;2.87;;;;;;;-0.31;91.15;92313.95;1761845;80;21662;-76
2021/01/07 04:37:04;;;;;;;5.17;2.62;;;;;;;-0.35;91.21;92319.80;1777434;80;21574;-81
2021/01/07 04:39:32;;;;;;;1.60;0.95;;;;;;;-0.33;91.48;92316.78;1783611;80;21187;-77
2021/01/07 04:42:00;;;;;;;0.65;0.60;;;;;;;-0.31;91.61;92307.84;1814114;78;21186;-79
2021/01/07 04:44:28;;;;;;;0.62;0.62;;;;;;;-0.27;91.60;92308.67;1830086;77;21159;-80
2021/01/07 04:46:58;;;;;;;1.45;0.65;;;;;;;-0.23;91.52;92315.42;1798518;79;21265;-80
2021/01/07 04:49:26;;;;;;;0.78;0.60;;;;;;;-0.24;91.55;92313.31;1786724;80;21693;-77
2021/01/07 04:51:56;;;;;;;1.25;0.68;;;;;;;-0.21;91.56;92312.61;1823107;77;21182;-79
2021/01/07 04:54:24;;;;;;;0.42;0.42;;;;;;;-0.19;91.64;92302.90;1805748;77;21210;-80
2021/01/07 04:56:52;;;;;;;1.12;0.80;;;;;;;-0.19;91.53;92298.89;1803699;79;21602;-78
2021/01/07 04:59:20;;;;;;;0.72;0.72;;;;;;;-0.22;91.65;92294.28;1810252;77;21651;-80
2021/01/07 05:01:49;;;;;;;0.50;0.50;;;;;;;-0.23;91.87;92292.14;1809985;78;21231;-79
2021/01/07 05:04:17;;;;;;;0.78;0.78;;;;;;;-0.23;91.99;92292.71;1811128;78;21189;-78
2021/01/07 05:06:48;;;;;;;3.08;2.40;;;;;;;-0.21;92.02;92298.48;1794776;78;21179;-81
2021/01/07 05:09:16;;;;;;;2.08;1.57;;;;;;;-0.21;91.93;92304.59;1804700;77;21171;-78
2021/01/07 05:11:44;;;;;;;5.40;2.55;;;;;;;-0.22;92.09;92301.73;1806574;78;21201;-79
2021/01/07 05:14:12;;;;;;;8.85;6.25;;;;;;;-0.20;92.17;92302.70;1798675;79;21203;-79
2021/01/07 05:16:41;;;;;;;18.02;11.73;;;;;;;-0.22;92.26;92302.30;1809116;79;21214;-78
2021/01/07 05:19:09;;;;;;;17.50;11.55;;;;;;;-0.28;92.42;92297.79;1785972;77;21475;-80
2021/01/07 05:21:39;;;;;;;18.07;13.72;;;;;;;-0.30;92.78;92294.15;1791659;78;21617;-83
2021/01/07 05:24:07;;;;;;;20.65;13.50;;;;;;;-0.28;92.90;92291.88;1791900;77;21313;-80
2021/01/07 05:26:36;;;;;;;16.87;11.05;;;;;;;-0.24;92.92;92297.29;1792854;77;21183;-77
2021/01/07 05:29:04;;;;;;;10.98;7.40;;;;;;;-0.20;92.96;92296.78;1762024;78;21159;-78
2021/01/07 05:31:32;;;;;;;15.95;10.65;;;;;;;-0.15;93.06;92288.50;1799828;77;21240;-78
2021/01/07 05:34:00;;;;;;;7.05;4.90;;;;;;;-0.09;92.89;92288.39;1808578;77;21750;-78
2021/01/07 05:36:30;;;;;;;13.75;9.25;;;;;;;-0.08;92.80;92285.92;1791995;79;21200;-81
2021/01/07 05:39:04;;;;;;;10.45;7.47;;;;;;;-0.06;92.66;92284.25;1821704;78;21059;-79
2021/01/07 05:41:53;;;;;;;7.28;4.97;;;;;;;-0.07;92.66;92281.38;1814151;78;21195;-79
2021/01/07 05:44:22;;;;;;;9.13;6.47;;;;;;;-0.03;92.84;92280.87;1755012;81;21158;-78
2021/01/07 05:46:50;;;;;;;6.25;4.87;;;;;;;0.03;92.76;92284.00;1785975;80;21170;-78
2021/01/07 05:49:20;;;;;;;9.30;7.50;;;;;;;0.04;92.63;92276.98;1770984;79;21836;-78
2021/01/07 05:51:48;;;;;;;14.68;11.48;;;;;;;0.04;92.63;92285.00;1796183;79;21179;-78
2021/01/07 05:54:16;;;;;;;16.67;12.93;;;;;;;0.07;92.71;92286.94;1789546;79;21212;-75
2021/01/07 05:56:45;;;;;;;21.37;14.58;;;;;;;0.10;92.64;92279.55;1777349;79;21172;-78
2021/01/07 05:59:15;;;;;;;23.27;16.35;;;;;;;0.10;92.50;92279.55;1785130;79;21179;-78
2021/01/07 06:01:43;;;;;;;27.60;18.87;;;;;;;0.07;92.31;92275.48;1776110;80;22102;-78
2021/01/07 06:04:11;;;;;;;29.67;19.65;;;;;;;0.02;92.30;92281.13;1774387;80;21203;-78
2021/01/07 06:06:39;;;;;;;29.70;21.00;;;;;;;-0.03;92.38;92286.98;1785585;80;21110;-78
2021/01/07 06:09:07;;;;;;;33.05;21.05;;;;;;;-0.05;92.55;92283.11;1788489;79;21747;-78
2021/01/07 06:11:36;;;;;;;31.45;22.10;;;;;;;-0.09;92.53;92278.27;1781617;80;21340;-80
2021/01/07 06:14:08;;;;;;;34.10;22.60;;;;;;;-0.11;92.73;92280.55;1787008;80;22337;-78
2021/01/07 06:16:42;;;;;;;25.15;17.95;;;;;;;-0.07;93.00;92284.05;1818447;78;21215;-78
2021/01/07 06:19:37;;;;;;;30.25;20.35;;;;;;;-0.04;92.91;92280.10;1769599;79;21138;-77
2021/01/07 06:22:15;;;;;;;33.40;23.45;;;;;;;-0.03;92.93;92278.97;1789079;78;21203;-78
2021/01/07 06:24:44;;;;;;;44.58;27.85;;;;;;;0.01;93.04;92284.94;1796038;78;21175;-78
2021/01/07 06:27:27;;;;;;;52.88;30.50;;;;;;;0.06;93.09;92287.30;1782682;80;21226;-78
2021/01/07 06:30:12;;;;;;;39.42;26.12;;;;;;;0.09;92.90;92286.59;1793171;78;21234;-77
2021/01/07 06:32:41;;;;;;;41.42;26.87;;;;;;;0.09;92.90;92275.34;1803048;79;21363;-78
2021/01/07 06:35:15;;;;;;;44.35;28.75;;;;;;;0.10;92.84;92276.88;1787212;79;21150;-78
2021/01/07 06:37:51;;;;;;;78.65;44.63;;;;;;;0.09;92.72;92283.92;1755146;80;21297;-78
2021/01/07 06:40:24;;;;;;;66.77;40.28;;;;;;;0.06;92.78;92279.28;1753313;81;21388;-77
2021/01/07 06:42:54;;;;;;;58.92;34.18;;;;;;;0.07;92.94;92280.83;1761554;80;21164;-79
2021/01/07 06:45:24;;;;;;;56.53;33.15;;;;;;;0.06;92.94;92284.06;1757194;80;21203;-77
2021/01/07 06:47:54;;;;;;;49.42;32.20;;;;;;;0.07;92.87;92277.58;1783963;80;21202;-77
2021/01/07 06:50:24;;;;;;;56.88;35.75;;;;;;;0.03;92.95;92279.42;1752680;81;21600;-77
2021/01/07 06:53:01;;;;;;;68.97;42.55;;;;;;;0.06;93.06;92291.31;1782079;79;21478;-77
2021/01/07 06:55:30;;;;;;;65.55;39.40;;;;;;;0.04;93.09;92294.36;1782685;79;21171;-79
2021/01/07 06:57:58;;;;;;;43.17;29.65;;;;;;;0.04;93.01;92293.02;1803747;79;21183;-78
2021/01/07 07:00:27;;;;;;;15.93;11.30;;;;;;;0.03;93.04;92293.36;1782119;79;21188;-79
2021/01/07 07:03:00;;;;;;;29.75;21.95;;;;;;;0.02;93.24;92291.25;1807432;78;21515;-79
2021/01/07 07:05:32;;;;;;;43.25;29.32;;;;;;;0.03;93.33;92292.02;1815726;78;22474;-78
2021/01/07 07:08:12;;;;;;;46.13;31.00;;;;;;;0.03;93.41;92294.13;1799946;79;21196;-78
2021/01/07 07:10:56;;;;;;;29.72;18.57;;;;;;;0.05;93.42;92299.13;1771553;79;21139;-77
2021/01/07 07:13:26;;;;;;;27.35;16.87;;;;;;;0.05;93.37;92295.89;1818467;77;21147;-78
2021/01/07 07:15:55;;;;;;;11.00;7.62;;;;;;;0.01;93.45;92293.72;1752966;80;21178;-77
2021/01/07 07:18:36;;;;;;;6.03;4.33;;;;;;;-0.03;93.62;92285.64;1734594;80;21481;-76
2021/01/07 07:21:20;;;;;;;5.40;3.77;;;;;;;-0.06;93.92;92282.91;1833099;77;21171;-77
2021/01/07 07:23:50;;;;;;;3.72;3.15;;;;;;;-0.06;94.15;92288.26;1808116;79;21204;-77
2021/01/07 07:26:40;;;;;;;3.67;2.75;;;;;;;-0.05;94.33;92290.56;1783769;80;21585;-78
2021/01/07 07:29:11;;;;;;;8.58;4.83;;;;;;;-0.01;94.41;92299.98;1790420;80;21453;-78
2021/01/07 07:31:43;;;;;;;18.57;11.18;;;;;;;0.05;94.43;92290.55;1757877;80;21337;-77
2021/01/07 07:34:13;;;;;;;24.85;13.48;;;;;;;0.08;94.38;92295.19;1768611;79;21160;-77
2021/01/07 07:36:41;;;;;;;22.15;12.53;;;;;;;0.12;94.37;92289.90;1793965;79;21170;-81
2021/01/07 07:39:10;;;;;;;23.92;15.30;;;;;;;0.15;94.35;92293.97;1758286;81;21223;-80
2021/01/07 07:41:41;;;;;;;24.82;15.23;;;;;;;0.17;94.14;92291.70;1765374;80;21187;-80
2021/01/07 07:44:10;;;;;;;32.98;21.33;;;;;;;0.18;94.14;92293.23;1743625;81;21575;-79
2021/01/07 07:46:40;;;;;;;28.98;18.70;;;;;;;0.18;94.11;92301.25;1760155;79;21545;-80
2021/01/07 07:49:10;;;;;;;32.08;20.12;;;;;;;0.18;94.11;92308.50;1773236;80;21202;-79
2021/01/07 07:51:40;;;;;;;13.62;8.35;;;;;;;0.17;94.23;92303.73;1779484;79;21710;-79
2021/01/07 07:54:11;;;;;;;17.75;11.10;;;;;;;0.20;94.42;92300.91;1747729;81;21196;-79
2021/01/07 07:59:55;;;;;;;24.98;17.00;;;;;;;0.40;94.08;92323.77;1723933;82;21029;-79
2021/01/07 08:02:23;;;;;;;20.55;14.05;;;;;;;0.42;93.78;92324.20;1693435;82;21362;-79
2021/01/07 08:04:52;;;;;;;9.18;7.08;;;;;;;0.42;93.71;92337.57;1764016;80;21478;-79
2021/01/07 08:07:20;;;;;;;7.50;5.47;;;;;;;0.40;93.50;92335.80;1778230;80;21210;-79
2021/01/07 08:09:50;;;;;;;6.60;5.05;;;;;;;0.42;93.48;92336.23;1813521;79;21207;-79
2021/01/07 08:12:21;;;;;;;5.35;4.53;;;;;;;0.43;93.44;92343.69;1762764;80;21240;-79
2021/01/07 08:14:51;;;;;;;5.60;4.67;;;;;;;0.45;93.39;92338.20;1719811;83;21234;-79
2021/01/07 08:17:24;;;;;;;8.18;6.08;;;;;;;0.50;93.33;92349.16;1743335;80;21546;-79
2021/01/07 08:19:52;;;;;;;13.95;8.78;;;;;;;0.52;93.20;92345.55;1741361;81;21422;-80
2021/01/07 08:22:27;;;;;;;11.85;8.13;;;;;;;0.51;92.97;92343.23;1738563;81;21418;-77
2021/01/07 08:25:02;;;;;;;;;;;;;;;0.47;92.84;92348.53;1770916;80;21159;-78
2021/01/07 08:27:35;;;;;;;11.05;8.63;;;;;;;0.44;92.59;92362.61;1732317;81;20291;-79
2021/01/07 08:30:05;;;;;;;8.35;6.00;;;;;;;0.42;92.69;92344.26;1751338;80;21415;-80
2021/01/07 08:32:58;;;;;;;7.75;5.65;;;;;;;0.41;92.57;92336.00;1746055;81;21461;-79
2021/01/07 08:35:27;;;;;;;5.85;4.83;;;;;;;0.40;92.72;92349.17;1711370;81;21820;-80
2021/01/07 08:37:55;;;;;;;5.75;4.50;;;;;;;0.39;92.54;92344.20;1706057;84;21099;-80
2021/01/07 08:40:23;;;;;;;4.95;4.45;;;;;;;0.40;92.42;92345.16;1756393;80;21461;-79
2021/01/07 08:42:52;;;;;;;4.00;3.60;;;;;;;0.44;92.18;92338.54;1762549;80;21171;-82
2021/01/07 08:45:29;;;;;;;6.10;4.08;;;;;;;0.46;91.78;92336.30;1782579;79;21180;-80
2021/01/07 08:48:08;;;;;;;4.15;2.87;;;;;;;0.47;90.95;92331.91;1794759;79;21287;-78
2021/01/07 08:50:38;;;;;;;3.75;2.45;;;;;;;0.52;90.33;92339.42;1821055;77;21216;-76
2021/01/07 08:53:14;;;;;;;10.03;6.05;;;;;;;0.51;89.44;92336.55;1815956;77;21182;-80
2021/01/07 08:55:49;;;;;;;2.90;2.65;;;;;;;0.53;89.48;92338.29;1783456;80;21179;-81
2021/01/07 08:58:28;;;;;;;3.55;2.62;;;;;;;0.52;89.98;92341.53;1774635;80;21222;-77
2021/01/07 09:00:57;;;;;;;10.60;5.45;;;;;;;0.53;89.80;92333.73;1756566;80;21260;-78
2021/01/07 09:03:37;;;;;;;2.10;1.37;;;;;;;0.56;89.02;92341.02;1743350;81;21255;-77
2021/01/07 09:06:09;;;;;;;2.87;2.33;;;;;;;0.59;88.83;92349.67;1737655;81;22209;-80
2021/01/07 09:08:39;;;;;;;2.98;2.17;;;;;;;0.65;88.39;92342.13;1719654;81;21267;-81
2021/01/07 09:11:14;;;;;;;1.45;1.35;;;;;;;0.75;88.84;92342.07;1780852;79;21210;-78
2021/01/07 09:13:44;;;;;;;1.55;1.02;;;;;;;0.80;88.15;92339.11;1745137;82;21423;-78
2021/01/07 09:16:16;;;;;;;0.53;0.53;;;;;;;0.85;86.60;92337.45;1784513;79;21195;-79
2021/01/07 09:18:46;;;;;;;1.47;1.00;;;;;;;0.88;86.77;92341.52;1780421;79;21191;-82
2021/01/07 09:21:15;;;;;;;0.65;0.62;;;;;;;0.89;87.10;92339.05;1779481;80;21177;-79
2021/01/07 09:23:47;;;;;;;4.95;3.62;;;;;;;0.88;85.53;92332.16;1775638;80;21881;-80
2021/01/07 09:28:51;;;;;;;4.10;2.75;;;;;;;0.89;86.39;92331.02;1710772;83;21420;-81
2021/01/07 09:31:21;;;;;;;4.10;2.67;;;;;;;0.87;86.10;92325.27;1754837;79;21467;-79
2021/01/07 09:33:49;;;;;;;17.20;8.33;;;;;;;0.87;85.66;92319.14;1797092;79;21513;-79
2021/01/07 09:36:18;;;;;;;9.08;4.67;;;;;;;0.85;86.14;92322.16;1798673;78;21149;-79
2021/01/07 09:38:47;;;;;;;5.65;3.17;;;;;;;0.82;85.68;92314.08;1799994;79;21432;-78
2021/01/07 09:41:15;;;;;;;4.85;3.33;;;;;;;0.78;85.55;92312.69;1788329;80;21178;-79
2021/01/07 09:43:43;;;;;;;7.28;3.37;;;;;;;0.80;85.59;92313.12;1787289;80;21190;-79
2021/01/07 09:46:11;;;;;;;8.25;3.83;;;;;;;0.83;85.19;92307.05;1763639;80;21198;-78
2021/01/07 09:48:39;;;;;;;12.33;7.15;;;;;;;0.89;85.48;92305.59;1764119;80;21138;-79
2021/01/07 09:51:07;;;;;;;5.50;3.35;;;;;;;0.97;85.73;92294.41;1773962;80;22502;-77
2021/01/07 09:53:34;;;;;;;5.45;3.37;;;;;;;1.00;85.33;92291.02;1773649;80;21187;-78
2021/01/07 09:56:03;;;;;;;7.20;4.33;;;;;;;1.02;85.36;92293.34;1775088;80;21167;-78
2021/01/07 09:58:33;;;;;;;22.67;10.53;;;;;;;1.06;84.90;92290.91;1774546;80;21179;-79
2021/01/07 10:01:01;;;;;;;36.80;15.25;;;;;;;1.13;85.04;92292.89;1775204;80;21676;-78
2021/01/07 10:03:31;;;;;;;18.07;7.95;;;;;;;1.15;85.32;92282.03;1778294;78;21162;-77
2021/01/07 10:05:59;;;;;;;11.57;5.17;;;;;;;1.18;83.58;92275.95;1776755;80;21282;-78
2021/01/07 10:08:27;;;;;;;14.25;6.45;;;;;;;1.28;83.54;92271.08;1754235;80;21163;-79
2021/01/07 10:10:56;;;;;;;16.12;8.73;;;;;;;1.44;83.01;92264.41;1747903;80;21187;-80
2021/01/07 10:13:23;;;;;;;7.60;4.35;;;;;;;1.66;82.39;92259.29;1746144;81;21182;-79
2021/01/07 10:15:51;;;;;;;6.28;4.00;;;;;;;1.85;81.90;92255.66;1713939;83;21787;-79
2021/01/07 10:18:20;;;;;;;2.52;2.33;;;;;;;2.08;82.14;92250.88;1732876;80;21664;-79
2021/01/07 10:20:50;;;;;;;2.92;2.17;;;;;;;2.32;82.29;92255.48;1777137;80;21211;-77
2021/01/07 10:23:18;;;;;;;2.17;1.98;;;;;;;2.47;79.07;92260.39;1744067;81;21194;-79
2021/01/07 10:25:46;;;;;;;2.85;2.55;;;;;;;2.51;78.23;92253.13;1757693;81;21139;-78
2021/01/07 10:28:13;;;;;;;9.93;6.47;;;;;;;2.55;78.30;92254.69;1781810;79;21411;-78
2021/01/07 10:30:43;;;;;;;9.88;5.30;;;;;;;2.57;78.69;92255.68;1813332;78;21203;-78
2021/01/07 10:33:12;;;;;;;4.70;3.80;;;;;;;2.56;79.29;92257.59;1816291;78;21377;-78
2021/01/07 10:35:42;;;;;;;2.80;2.42;;;;;;;2.50;78.76;92253.70;1789199;80;21111;-78
2021/01/07 10:38:11;;;;;;;2.35;1.92;;;;;;;2.38;78.54;92270.87;1748935;80;21178;-78
2021/01/07 10:40:43;;;;;;;3.35;1.95;;;;;;;2.27;77.27;92271.92;1802240;79;21437;-78
2021/01/07 10:43:14;;;;;;;2.55;1.95;;;;;;;2.15;78.07;92272.98;1813374;79;21167;-78
2021/01/07 10:45:41;;;;;;;2.37;1.98;;;;;;;2.08;78.16;92279.61;1810042;78;21194;-77
2021/01/07 10:48:14;;;;;;;2.67;1.52;;;;;;;2.00;77.52;92270.73;1790578;79;21360;-76
2021/01/07 10:50:53;;;;;;;2.85;1.62;;;;;;;1.93;77.80;92276.02;1757838;79;21160;-78
2021/01/07 10:53:51;;;;;;;3.85;3.00;;;;;;;1.85;78.07;92271.73;1807835;78;21209;-78
2021/01/07 10:56:33;;;;;;;2.15;1.70;;;;;;;1.78;78.47;92275.69;1865774;76;21222;-76
2021/01/07 10:59:36;;;;;;;2.00;1.60;;;;;;;1.66;78.08;92285.52;1758608;79;21203;-76
2021/01/07 11:05:22;;;;;;;2.02;1.45;;;;;;;1.49;79.33;92287.41;1843682;77;21184;-81
2021/01/07 11:08:01;;;;;;;1.45;1.35;;;;;;;1.45;80.20;92278.00;1811822;77;22310;-78
2021/01/07 11:10:30;;;;;;;1.10;1.00;;;;;;;1.44;80.15;92271.67;1753629;79;21176;-80
2021/01/07 11:13:01;;;;;;;2.15;1.80;;;;;;;1.37;80.29;92275.61;1793029;79;21160;-79
2021/01/07 11:15:29;;;;;;;2.02;1.70;;;;;;;1.31;79.99;92282.41;1798698;78;21349;-80
2021/01/07 11:17:59;;;;;;;1.57;1.22;;;;;;;1.28;80.01;92275.89;1832287;77;21067;-81
2021/01/07 11:20:27;;;;;;;1.17;1.07;;;;;;;1.29;80.19;92276.66;1802190;79;22297;-84
2021/01/07 11:22:57;;;;;;;3.87;1.75;;;;;;;1.28;79.58;92286.61;1822277;78;21124;-78
2021/01/07 11:25:24;;;;;;;6.05;4.15;;;;;;;1.24;78.55;92272.95;1820406;78;21379;-78
2021/01/07 11:27:52;;;;;;;1.90;1.75;;;;;;;1.20;78.39;92266.20;1796955;78;21188;-83
2021/01/07 11:30:21;;;;;;;3.02;2.42;;;;;;;1.19;78.59;92270.80;1811663;78;21169;-81
2021/01/07 11:32:48;;;;;;;3.40;2.22;;;;;;;1.23;78.25;92279.45;1811812;78;22241;-79
2021/01/07 11:35:16;;;;;;;1.45;1.12;;;;;;;1.23;77.44;92281.55;1823454;78;21168;-79
2021/01/07 11:38:00;;;;;;;2.33;1.52;;;;;;;1.20;77.02;92274.24;1819490;78;21200;-79
2021/01/07 11:40:50;;;;;;;1.85;1.22;;;;;;;1.21;77.32;92274.47;1818962;78;21129;-81
2021/01/07 11:44:12;;;;;;;1.62;1.50;;;;;;;1.27;77.68;92254.81;1787377;78;21144;-81
2021/01/07 11:46:41;;;;;;;1.40;1.30;;;;;;;1.34;76.36;92259.69;1815765;78;22652;-82
2021/01/07 11:49:08;;;;;;;1.85;1.47;;;;;;;1.29;74.77;92260.02;1814743;77;21189;-84
2021/01/07 11:51:36;;;;;;;2.33;1.80;;;;;;;1.29;75.53;92252.56;1755210;79;21168;-81
2021/01/07 11:54:04;;;;;;;2.75;2.00;;;;;;;1.34;76.07;92251.66;1812034;79;21236;-80
2021/01/07 11:56:32;;;;;;;1.35;1.25;;;;;;;1.39;76.10;92251.89;1817100;77;21633;-82
2021/01/07 11:59:01;;;;;;;0.90;0.80;;;;;;;1.37;75.33;92267.58;1810046;77;22311;-84
2021/01/07 12:01:31;;;;;;;0.65;0.65;;;;;;;1.35;73.66;92243.81;1852426;77;21315;-79